createdAt,value
2022-08-01T00:00:31.228Z,990.05
2022-08-01T00:01:31.161Z,990.08
2022-08-01T00:02:31.195Z,990.04
2022-08-01T00:03:31.198Z,990.04
2022-08-01T00:04:31.135Z,990.07
2022-08-01T00:05:31.115Z,990.04
2022-08-01T00:06:31.128Z,990.06
2022-08-01T00:07:31.113Z,990.04
2022-08-01T00:08:31.145Z,990.00
2022-08-01T00:09:31.054Z,990.00
2022-08-01T00:10:31.160Z,989.99
2022-08-01T00:11:31.050Z,990.02
2022-08-01T00:12:31.038Z,990.05
2022-08-01T00:13:31.106Z,990.07
2022-08-01T00:14:32.671Z,990.06
2022-08-01T00:15:30.988Z,990.09
2022-08-01T00:16:30.963Z,990.06
2022-08-01T00:17:30.963Z,990.07
2022-08-01T00:18:30.973Z,990.03
2022-08-01T00:19:30.925Z,990.02
2022-08-01T00:20:30.929Z,990.07
2022-08-01T00:21:30.948Z,990.04
2022-08-01T00:22:30.944Z,990.07
2022-08-01T00:23:30.950Z,990.07
2022-08-01T00:24:30.874Z,990.10
2022-08-01T00:25:34.222Z,990.11
2022-08-01T00:26:30.865Z,990.12
2022-08-01T00:27:30.822Z,990.12
2022-08-01T00:28:30.879Z,990.12
2022-08-01T00:30:11.698Z,990.13
2022-08-01T00:30:31.786Z,990.15
2022-08-01T00:31:30.842Z,990.12
2022-08-01T00:32:30.834Z,990.10
2022-08-01T00:33:30.752Z,990.12
2022-08-01T00:34:30.734Z,990.13
2022-08-01T00:35:30.728Z,990.14
2022-08-01T00:36:30.744Z,990.14
2022-08-01T00:37:30.740Z,990.12
2022-08-01T00:38:30.720Z,990.13
2022-08-01T00:39:30.682Z,990.14
2022-08-01T00:40:30.723Z,990.14
2022-08-01T00:41:30.636Z,990.13
2022-08-01T00:42:30.645Z,990.16
2022-08-01T00:43:30.674Z,990.14
2022-08-01T00:44:30.617Z,990.14
2022-08-01T00:45:30.618Z,990.15
2022-08-01T00:46:30.622Z,990.16
2022-08-01T00:47:30.590Z,990.15
2022-08-01T00:48:30.551Z,990.16
2022-08-01T00:49:30.617Z,990.12
2022-08-01T00:50:30.563Z,990.15
2022-08-01T00:51:30.536Z,990.17
2022-08-01T00:52:30.547Z,990.20
2022-08-01T00:53:50.798Z,990.17
2022-08-01T00:54:31.540Z,990.19
2022-08-01T00:55:30.577Z,990.20
2022-08-01T00:56:30.450Z,990.19
2022-08-01T00:57:41.456Z,990.18
2022-08-01T00:58:31.459Z,990.16
2022-08-01T00:59:30.425Z,990.19
2022-08-01T01:00:30.496Z,990.16
2022-08-01T01:01:39.362Z,990.19
2022-08-01T01:02:31.450Z,990.22
2022-08-01T01:03:56.408Z,990.21
2022-08-01T01:04:31.366Z,990.21
2022-08-01T01:05:33.543Z,990.26
2022-08-01T01:06:31.371Z,990.27
2022-08-01T01:07:30.315Z,990.23
2022-08-01T01:08:30.296Z,990.25
2022-08-01T01:09:30.301Z,990.34
2022-08-01T01:10:30.324Z,990.28
2022-08-01T01:11:30.267Z,990.31
2022-08-01T01:12:30.302Z,990.35
2022-08-01T01:13:31.284Z,990.33
2022-08-01T01:14:30.243Z,990.36
2022-08-01T01:15:30.254Z,990.34
2022-08-01T01:16:30.206Z,990.35
2022-08-01T01:17:31.250Z,990.36
2022-08-01T01:18:31.186Z,990.37
2022-08-01T01:19:30.205Z,990.38
2022-08-01T01:20:30.284Z,990.38
2022-08-01T01:21:30.155Z,990.40
2022-08-01T01:22:30.196Z,990.42
2022-08-01T01:23:30.124Z,990.34
2022-08-01T01:24:30.110Z,990.40
2022-08-01T01:25:30.086Z,990.40
2022-08-01T01:26:30.114Z,990.43
2022-08-01T01:27:30.054Z,990.41
2022-08-01T01:28:30.054Z,990.41
2022-08-01T01:29:30.035Z,990.40
2022-08-01T01:30:31.023Z,990.38
2022-08-01T01:31:30.033Z,990.38
2022-08-01T01:32:30.885Z,990.38
2022-08-01T01:33:29.982Z,990.40
2022-08-01T01:34:30.005Z,990.45
2022-08-01T01:35:29.951Z,990.42
2022-08-01T01:36:29.962Z,990.43
2022-08-01T01:37:29.942Z,990.43
2022-08-01T01:38:29.912Z,990.44
2022-08-01T01:39:29.929Z,990.38
2022-08-01T01:40:29.922Z,990.38
2022-08-01T01:41:29.916Z,990.40
2022-08-01T01:42:29.862Z,990.39
2022-08-01T01:43:33.221Z,990.42
2022-08-01T01:44:29.866Z,990.38
2022-08-01T01:45:29.833Z,990.42
2022-08-01T01:46:29.816Z,990.41
2022-08-01T01:47:29.804Z,990.41
2022-08-01T01:48:29.893Z,990.40
2022-08-01T01:49:29.807Z,990.43
2022-08-01T01:50:29.850Z,990.43
2022-08-01T01:51:29.782Z,990.48
2022-08-01T01:52:29.774Z,990.49
2022-08-01T01:53:29.796Z,990.48
2022-08-01T01:54:29.749Z,990.47
2022-08-01T01:55:29.720Z,990.50
2022-08-01T01:56:29.708Z,990.51
2022-08-01T01:57:29.658Z,990.54
2022-08-01T01:58:29.691Z,990.57
2022-08-01T01:59:29.662Z,990.54
2022-08-01T02:00:29.648Z,990.59
2022-08-01T02:01:58.869Z,990.60
2022-08-01T02:02:30.648Z,990.61
2022-08-01T02:03:29.616Z,990.57
2022-08-01T02:04:29.638Z,990.55
2022-08-01T02:05:29.764Z,990.58
2022-08-01T02:06:29.557Z,990.58
2022-08-01T02:07:29.536Z,990.58
2022-08-01T02:08:29.542Z,990.59
2022-08-01T02:09:29.537Z,990.58
2022-08-01T02:10:29.512Z,990.55
2022-08-01T02:11:29.478Z,990.58
2022-08-01T02:12:29.482Z,990.58
2022-08-01T02:13:29.545Z,990.58
2022-08-01T02:14:29.482Z,990.58
2022-08-01T02:15:29.494Z,990.60
2022-08-01T02:16:29.458Z,990.59
2022-08-01T02:17:29.404Z,990.61
2022-08-01T02:18:29.445Z,990.59
2022-08-01T02:19:29.383Z,990.59
2022-08-01T02:20:29.383Z,990.61
2022-08-01T02:21:29.353Z,990.59
2022-08-01T02:22:29.354Z,990.61
2022-08-01T02:23:29.404Z,990.60
2022-08-01T02:24:30.690Z,990.62
2022-08-01T02:25:29.322Z,990.65
2022-08-01T02:26:29.342Z,990.67
2022-08-01T02:27:29.288Z,990.68
2022-08-01T02:28:29.349Z,990.67
2022-08-01T02:29:29.302Z,990.63
2022-08-01T02:30:29.283Z,990.71
2022-08-01T02:31:29.229Z,990.70
2022-08-01T02:32:29.290Z,990.68
2022-08-01T02:33:29.348Z,990.73
2022-08-01T02:34:29.221Z,990.70
2022-08-01T02:35:29.211Z,990.73
2022-08-01T02:36:31.985Z,990.72
2022-08-01T02:37:29.189Z,990.72
2022-08-01T02:38:29.161Z,990.71
2022-08-01T02:39:29.120Z,990.70
2022-08-01T02:40:29.134Z,990.73
2022-08-01T02:41:29.159Z,990.74
2022-08-01T02:42:29.111Z,990.68
2022-08-01T02:43:29.069Z,990.73
2022-08-01T02:44:29.078Z,990.74
2022-08-01T02:45:29.082Z,990.71
2022-08-01T02:46:29.048Z,990.73
2022-08-01T02:47:29.057Z,990.75
2022-08-01T02:48:29.019Z,990.75
2022-08-01T02:49:29.121Z,990.74
2022-08-01T02:50:28.990Z,990.75
2022-08-01T02:51:28.988Z,990.76
2022-08-01T02:52:28.978Z,990.75
2022-08-01T02:53:44.209Z,990.79
2022-08-01T02:54:29.984Z,990.79
2022-08-01T02:55:28.936Z,990.83
2022-08-01T02:56:28.916Z,990.78
2022-08-01T02:57:33.598Z,990.75
2022-08-01T02:58:30.386Z,990.75
2022-08-01T02:59:28.896Z,990.81
2022-08-01T03:00:28.892Z,990.76
2022-08-01T03:01:29.240Z,990.75
2022-08-01T03:02:28.853Z,990.74
2022-08-01T03:03:28.815Z,990.77
2022-08-01T03:04:28.812Z,990.77
2022-08-01T03:05:28.797Z,990.79
2022-08-01T03:06:28.792Z,990.83
2022-08-01T03:07:34.235Z,990.84
2022-08-01T03:08:29.804Z,990.80
2022-08-01T03:09:28.773Z,990.83
2022-08-01T03:10:28.763Z,990.80
2022-08-01T03:11:28.741Z,990.82
2022-08-01T03:12:28.737Z,990.84
2022-08-01T03:13:28.700Z,990.85
2022-08-01T03:14:28.683Z,990.80
2022-08-01T03:15:28.661Z,990.79
2022-08-01T03:16:28.663Z,990.80
2022-08-01T03:17:28.636Z,990.79
2022-08-01T03:18:28.693Z,990.78
2022-08-01T03:19:28.612Z,990.78
2022-08-01T03:20:28.601Z,990.76
2022-08-01T03:21:28.593Z,990.80
2022-08-01T03:22:28.598Z,990.77
2022-08-01T03:23:29.134Z,990.75
2022-08-01T03:24:29.560Z,990.75
2022-08-01T03:25:28.545Z,990.78
2022-08-01T03:26:28.588Z,990.79
2022-08-01T03:27:28.609Z,990.77
2022-08-01T03:28:29.768Z,990.79
2022-08-01T03:29:28.512Z,990.79
2022-08-01T03:30:28.471Z,990.80
2022-08-01T03:31:28.471Z,990.82
2022-08-01T03:32:28.451Z,990.77
2022-08-01T03:33:28.428Z,990.79
2022-08-01T03:34:28.448Z,990.82
2022-08-01T03:35:28.409Z,990.83
2022-08-01T03:36:28.433Z,990.82
2022-08-01T03:37:28.397Z,990.86
2022-08-01T03:38:28.402Z,990.87
2022-08-01T03:39:28.381Z,990.84
2022-08-01T03:40:28.346Z,990.81
2022-08-01T03:41:28.339Z,990.86
2022-08-01T03:42:28.325Z,990.93
2022-08-01T03:43:28.306Z,990.91
2022-08-01T03:44:28.294Z,990.91
2022-08-01T03:45:28.285Z,990.87
2022-08-01T03:46:28.279Z,990.89
2022-08-01T03:47:28.284Z,990.91
2022-08-01T03:48:28.273Z,990.88
2022-08-01T03:49:28.346Z,990.91
2022-08-01T03:50:28.232Z,990.90
2022-08-01T03:51:28.204Z,990.87
2022-08-01T03:52:28.226Z,990.89
2022-08-01T03:53:28.214Z,990.90
2022-08-01T03:54:28.203Z,990.96
2022-08-01T03:55:28.147Z,990.94
2022-08-01T03:56:28.219Z,990.90
2022-08-01T03:57:36.792Z,990.88
2022-08-01T03:58:29.112Z,990.92
2022-08-01T03:59:28.134Z,990.90
2022-08-01T04:00:28.103Z,990.92
2022-08-01T04:01:28.201Z,990.89
2022-08-01T04:02:28.094Z,990.90
2022-08-01T04:03:28.053Z,990.88
2022-08-01T04:04:28.043Z,990.89
2022-08-01T04:05:28.052Z,990.96
2022-08-01T04:06:28.021Z,990.90
2022-08-01T04:07:28.045Z,990.95
2022-08-01T04:08:29.990Z,990.95
2022-08-01T04:09:28.931Z,990.96
2022-08-01T04:10:27.959Z,990.93
2022-08-01T04:11:27.949Z,990.96
2022-08-01T04:12:27.941Z,990.92
2022-08-01T04:13:29.253Z,990.95
2022-08-01T04:14:28.918Z,990.96
2022-08-01T04:15:27.901Z,990.94
2022-08-01T04:16:27.981Z,990.96
2022-08-01T04:17:27.898Z,990.95
2022-08-01T04:18:27.848Z,990.98
2022-08-01T04:19:27.881Z,990.96
2022-08-01T04:20:27.840Z,990.94
2022-08-01T04:21:27.862Z,990.94
2022-08-01T04:22:27.805Z,990.97
2022-08-01T04:23:27.807Z,990.98
2022-08-01T04:24:27.799Z,990.99
2022-08-01T04:25:27.782Z,991.00
2022-08-01T04:26:27.777Z,990.99
2022-08-01T04:27:50.334Z,991.04
2022-08-01T04:28:28.744Z,991.06
2022-08-01T04:29:27.722Z,991.06
2022-08-01T04:30:27.693Z,991.10
2022-08-01T04:31:27.745Z,991.12
2022-08-01T04:32:27.670Z,991.09
2022-08-01T04:33:27.682Z,991.14
2022-08-01T04:34:27.652Z,991.15
2022-08-01T04:36:02.463Z,991.12
2022-08-01T04:36:28.647Z,991.15
2022-08-01T04:37:27.614Z,991.15
2022-08-01T04:38:27.611Z,991.14
2022-08-01T04:39:27.649Z,991.13
2022-08-01T04:40:27.564Z,991.16
2022-08-01T04:41:27.602Z,991.18
2022-08-01T04:42:30.222Z,991.16
2022-08-01T04:43:28.553Z,991.17
2022-08-01T04:44:32.265Z,991.19
2022-08-01T04:45:28.505Z,991.14
2022-08-01T04:46:27.490Z,991.16
2022-08-01T04:47:27.471Z,991.17
2022-08-01T04:48:27.481Z,991.19
2022-08-01T04:49:27.497Z,991.16
2022-08-01T04:50:27.451Z,991.22
2022-08-01T04:51:27.449Z,991.18
2022-08-01T04:52:27.403Z,991.19
2022-08-01T04:53:27.410Z,991.22
2022-08-01T04:54:27.406Z,991.24
2022-08-01T04:55:27.401Z,991.18
2022-08-01T04:56:27.358Z,991.20
2022-08-01T04:57:27.358Z,991.17
2022-08-01T04:58:27.329Z,991.21
2022-08-01T04:59:27.341Z,991.17
2022-08-01T05:00:27.341Z,991.19
2022-08-01T05:01:27.409Z,991.22
2022-08-01T05:02:27.287Z,991.22
2022-08-01T05:03:27.299Z,991.23
2022-08-01T05:04:27.355Z,991.23
2022-08-01T05:05:27.299Z,991.23
2022-08-01T05:06:27.237Z,991.24
2022-08-01T05:07:27.216Z,991.22
2022-08-01T05:08:27.200Z,991.20
2022-08-01T05:09:31.107Z,991.23
2022-08-01T05:10:27.215Z,991.24
2022-08-01T05:11:27.185Z,991.24
2022-08-01T05:12:27.205Z,991.24
2022-08-01T05:13:27.136Z,991.26
2022-08-01T05:14:27.135Z,991.26
2022-08-01T05:15:27.155Z,991.21
2022-08-01T05:16:27.103Z,991.24
2022-08-01T05:17:27.134Z,991.25
2022-08-01T05:18:28.365Z,991.24
2022-08-01T05:19:27.234Z,991.23
2022-08-01T05:20:27.104Z,991.18
2022-08-01T05:21:27.052Z,991.21
2022-08-01T05:22:28.001Z,991.27
2022-08-01T05:23:42.352Z,991.25
2022-08-01T05:24:28.033Z,991.21
2022-08-01T05:25:56.325Z,991.27
2022-08-01T05:26:28.043Z,991.29
2022-08-01T05:27:26.989Z,991.29
2022-08-01T05:28:27.069Z,991.22
2022-08-01T05:29:26.986Z,991.26
2022-08-01T05:30:26.928Z,991.27
2022-08-01T05:31:26.941Z,991.26
2022-08-01T05:32:27.005Z,991.28
2022-08-01T05:33:26.882Z,991.27
2022-08-01T05:34:26.902Z,991.26
2022-08-01T05:35:48.163Z,991.23
2022-08-01T05:36:27.910Z,991.23
2022-08-01T05:37:26.895Z,991.25
2022-08-01T05:38:26.829Z,991.24
2022-08-01T05:39:26.899Z,991.26
2022-08-01T05:40:26.788Z,991.27
2022-08-01T05:41:26.784Z,991.28
2022-08-01T05:42:26.781Z,991.28
2022-08-01T05:43:28.984Z,991.23
2022-08-01T05:44:26.995Z,991.27
2022-08-01T05:45:26.738Z,991.19
2022-08-01T05:46:27.549Z,991.22
2022-08-01T05:47:26.702Z,991.22
2022-08-01T05:48:26.702Z,991.21
2022-08-01T05:49:26.768Z,991.23
2022-08-01T05:50:26.666Z,991.22
2022-08-01T05:51:26.666Z,991.24
2022-08-01T05:52:26.716Z,991.25
2022-08-01T05:53:26.626Z,991.27
2022-08-01T05:54:26.697Z,991.28
2022-08-01T05:55:26.596Z,991.24
2022-08-01T05:56:30.455Z,991.31
2022-08-01T05:57:27.625Z,991.30
2022-08-01T05:58:26.559Z,991.27
2022-08-01T05:59:26.584Z,991.29
2022-08-01T06:00:26.599Z,991.31
2022-08-01T06:01:26.578Z,991.31
2022-08-01T06:02:26.618Z,991.33
2022-08-01T06:03:26.515Z,991.30
2022-08-01T06:04:26.525Z,991.31
2022-08-01T06:05:26.487Z,991.32
2022-08-01T06:06:26.473Z,991.33
2022-08-01T06:07:26.468Z,991.33
2022-08-01T06:08:26.444Z,991.32
2022-08-01T06:09:26.432Z,991.30
2022-08-01T06:10:26.413Z,991.30
2022-08-01T06:11:26.435Z,991.32
2022-08-01T06:12:26.546Z,991.33
2022-08-01T06:13:26.383Z,991.30
2022-08-01T06:14:26.413Z,991.34
2022-08-01T06:15:26.382Z,991.29
2022-08-01T06:16:26.373Z,991.32
2022-08-01T06:17:26.344Z,991.35
2022-08-01T06:18:26.335Z,991.34
2022-08-01T06:19:26.315Z,991.33
2022-08-01T06:20:27.270Z,991.37
2022-08-01T06:21:26.315Z,991.36
2022-08-01T06:22:26.294Z,991.38
2022-08-01T06:23:32.681Z,991.38
2022-08-01T06:24:27.270Z,991.40
2022-08-01T06:25:26.231Z,991.40
2022-08-01T06:26:26.190Z,991.39
2022-08-01T06:27:26.199Z,991.42
2022-08-01T06:28:26.169Z,991.40
2022-08-01T06:29:26.169Z,991.44
2022-08-01T06:30:26.220Z,991.42
2022-08-01T06:31:29.368Z,991.41
2022-08-01T06:32:27.995Z,991.40
2022-08-01T06:33:26.133Z,991.38
2022-08-01T06:34:26.105Z,991.36
2022-08-01T06:35:26.131Z,991.38
2022-08-01T06:36:26.080Z,991.37
2022-08-01T06:37:26.073Z,991.36
2022-08-01T06:38:26.046Z,991.40
2022-08-01T06:39:26.046Z,991.43
2022-08-01T06:40:26.049Z,991.39
2022-08-01T06:41:26.011Z,991.43
2022-08-01T06:42:25.997Z,991.41
2022-08-01T06:43:26.007Z,991.47
2022-08-01T06:44:25.975Z,991.42
2022-08-01T06:45:26.033Z,991.43
2022-08-01T06:46:30.535Z,991.43
2022-08-01T06:47:27.002Z,991.40
2022-08-01T06:48:25.914Z,991.44
2022-08-01T06:49:25.990Z,991.44
2022-08-01T06:50:25.930Z,991.46
2022-08-01T06:51:25.874Z,991.47
2022-08-01T06:52:25.905Z,991.46
2022-08-01T06:53:25.864Z,991.45
2022-08-01T06:54:25.863Z,991.47
2022-08-01T06:55:25.874Z,991.47
2022-08-01T06:56:25.825Z,991.44
2022-08-01T06:57:25.807Z,991.45
2022-08-01T06:58:30.991Z,991.45
2022-08-01T06:59:26.859Z,991.49
2022-08-01T07:00:25.785Z,991.49
2022-08-01T07:01:25.835Z,991.51
2022-08-01T07:02:25.751Z,991.47
2022-08-01T07:03:25.765Z,991.50
2022-08-01T07:04:25.765Z,991.52
2022-08-01T07:05:25.732Z,991.51
2022-08-01T07:06:25.699Z,991.51
2022-08-01T07:07:25.689Z,991.52
2022-08-01T07:08:25.694Z,991.54
2022-08-01T07:09:25.662Z,991.53
2022-08-01T07:10:25.650Z,991.53
2022-08-01T07:11:25.677Z,991.51
2022-08-01T07:12:25.704Z,991.51
2022-08-01T07:13:25.613Z,991.50
2022-08-01T07:14:26.608Z,991.47
2022-08-01T07:15:25.604Z,991.51
2022-08-01T07:16:25.575Z,991.53
2022-08-01T07:17:25.596Z,991.48
2022-08-01T07:18:26.321Z,991.43
2022-08-01T07:19:25.540Z,991.46
2022-08-01T07:20:25.520Z,991.48
2022-08-01T07:21:25.522Z,991.51
2022-08-01T07:22:26.542Z,991.53
2022-08-01T07:23:33.771Z,991.52
2022-08-01T07:24:26.918Z,991.48
2022-08-01T07:25:25.474Z,991.47
2022-08-01T07:26:25.426Z,991.48
2022-08-01T07:27:26.300Z,991.47
2022-08-01T07:28:25.428Z,991.46
2022-08-01T07:29:25.418Z,991.50
2022-08-01T07:30:25.377Z,991.47
2022-08-01T07:31:28.317Z,991.47
2022-08-01T07:32:26.356Z,991.49
2022-08-01T07:33:25.395Z,991.47
2022-08-01T07:34:25.350Z,991.50
2022-08-01T07:35:25.353Z,991.51
2022-08-01T07:36:25.338Z,991.53
2022-08-01T07:37:41.953Z,991.48
2022-08-01T07:38:26.294Z,991.47
2022-08-01T07:39:25.276Z,991.50
2022-08-01T07:40:25.267Z,991.53
2022-08-01T07:41:54.653Z,991.44
2022-08-01T07:42:26.282Z,991.43
2022-08-01T07:43:25.221Z,991.40
2022-08-01T07:44:25.203Z,991.42
2022-08-01T07:45:25.238Z,991.38
2022-08-01T07:46:25.208Z,991.38
2022-08-01T07:47:25.185Z,991.42
2022-08-01T07:48:25.194Z,991.36
2022-08-01T07:49:25.279Z,991.38
2022-08-01T07:50:25.162Z,991.39
2022-08-01T07:51:25.122Z,991.36
2022-08-01T07:52:25.104Z,991.36
2022-08-01T07:53:25.115Z,991.37
2022-08-01T07:54:32.985Z,991.38
2022-08-01T07:55:26.061Z,991.38
2022-08-01T07:56:25.061Z,991.41
2022-08-01T07:57:25.036Z,991.39
2022-08-01T07:58:25.079Z,991.43
2022-08-01T07:59:26.394Z,991.41
2022-08-01T08:00:25.011Z,991.43
2022-08-01T08:01:25.003Z,991.40
2022-08-01T08:02:25.138Z,991.45
2022-08-01T08:03:24.961Z,991.41
2022-08-01T08:04:24.954Z,991.38
2022-08-01T08:05:58.950Z,991.32
2022-08-01T08:06:25.935Z,991.32
2022-08-01T08:07:24.919Z,991.28
2022-08-01T08:08:24.907Z,991.35
2022-08-01T08:09:24.908Z,991.39
2022-08-01T08:10:24.891Z,991.33
2022-08-01T08:11:24.871Z,991.33
2022-08-01T08:12:28.887Z,991.33
2022-08-01T08:13:24.825Z,991.32
2022-08-01T08:14:32.467Z,991.29
2022-08-01T08:15:25.820Z,991.31
2022-08-01T08:16:24.787Z,991.30
2022-08-01T08:17:24.828Z,991.29
2022-08-01T08:18:24.766Z,991.25
2022-08-01T08:19:37.497Z,991.25
2022-08-01T08:20:25.760Z,991.25
2022-08-01T08:21:24.723Z,991.21
2022-08-01T08:22:24.765Z,991.29
2022-08-01T08:23:26.478Z,991.23
2022-08-01T08:24:26.193Z,991.24
2022-08-01T08:25:26.663Z,991.23
2022-08-01T08:26:24.679Z,991.25
2022-08-01T08:27:24.657Z,991.23
2022-08-01T08:28:28.113Z,991.25
2022-08-01T08:29:24.618Z,991.23
2022-08-01T08:30:24.635Z,991.27
2022-08-01T08:31:51.789Z,991.29
2022-08-01T08:32:25.584Z,991.28
2022-08-01T08:33:24.626Z,991.31
2022-08-01T08:34:24.567Z,991.21
2022-08-01T08:35:40.251Z,991.27
2022-08-01T08:36:31.131Z,991.28
2022-08-01T08:37:25.534Z,991.27
2022-08-01T08:38:28.543Z,991.26
2022-08-01T08:39:24.496Z,991.27
2022-08-01T08:40:24.493Z,991.26
2022-08-01T08:41:24.516Z,991.24
2022-08-01T08:42:24.462Z,991.21
2022-08-01T08:43:24.443Z,991.23
2022-08-01T08:44:24.471Z,991.25
2022-08-01T08:45:30.949Z,991.26
2022-08-01T08:46:28.255Z,991.20
2022-08-01T08:47:24.426Z,991.18
2022-08-01T08:48:27.660Z,991.17
2022-08-01T08:49:24.485Z,991.16
2022-08-01T08:50:24.361Z,991.16
2022-08-01T08:51:24.360Z,991.14
2022-08-01T08:52:24.349Z,991.10
2022-08-01T08:53:24.331Z,991.08
2022-08-01T08:54:30.790Z,991.10
2022-08-01T08:55:25.311Z,991.06
2022-08-01T08:56:24.287Z,991.07
2022-08-01T08:57:24.286Z,991.12
2022-08-01T08:58:30.565Z,991.11
2022-08-01T08:59:25.280Z,991.09
2022-08-01T09:00:24.288Z,991.10
2022-08-01T09:01:24.208Z,991.09
2022-08-01T09:02:24.200Z,991.08
2022-08-01T09:03:24.275Z,991.03
2022-08-01T09:07:40.047Z,991.15
2022-08-01T09:08:40.725Z,991.10
2022-08-01T09:09:41.824Z,991.13
2022-08-01T09:10:39.994Z,991.13
2022-08-01T09:11:39.984Z,991.10
2022-08-01T09:12:40.024Z,991.12
2022-08-01T09:13:45.339Z,991.11
2022-08-01T09:14:40.982Z,991.13
2022-08-01T09:15:39.937Z,991.13
2022-08-01T09:16:39.975Z,991.18
2022-08-01T09:17:39.923Z,991.15
2022-08-01T09:18:39.906Z,991.15
2022-08-01T09:19:41.540Z,991.16
2022-08-01T09:20:39.912Z,991.17
2022-08-01T09:21:39.944Z,991.20
2022-08-01T09:22:39.853Z,991.20
2022-08-01T09:23:39.840Z,991.19
2022-08-01T09:24:40.832Z,991.23
2022-08-01T09:25:46.132Z,991.20
2022-08-01T09:26:40.833Z,991.21
2022-08-01T09:27:44.138Z,991.16
2022-08-01T09:28:42.996Z,991.19
2022-08-01T09:29:41.074Z,991.19
2022-08-01T09:30:39.762Z,991.16
2022-08-01T09:31:39.753Z,991.23
2022-08-01T09:32:39.740Z,991.19
2022-08-01T09:33:39.749Z,991.21
2022-08-01T09:34:39.698Z,991.21
2022-08-01T09:35:43.319Z,991.24
2022-08-01T09:36:39.669Z,991.21
2022-08-01T09:37:39.704Z,991.22
2022-08-01T09:38:43.923Z,991.28
2022-08-01T09:39:40.653Z,991.26
2022-08-01T09:40:39.637Z,991.25
2022-08-01T09:41:40.337Z,991.26
2022-08-01T09:42:39.598Z,991.25
2022-08-01T09:43:39.622Z,991.27
2022-08-01T09:44:42.132Z,991.27
2022-08-01T09:45:41.528Z,991.25
2022-08-01T09:46:39.548Z,991.27
2022-08-01T09:47:39.650Z,991.28
2022-08-01T09:48:39.527Z,991.26
2022-08-01T09:49:50.106Z,991.27
2022-08-01T09:50:40.510Z,991.20
2022-08-01T09:51:59.144Z,991.25
2022-08-01T09:52:41.181Z,991.25
2022-08-01T09:53:39.470Z,991.20
2022-08-01T09:54:39.513Z,991.14
2022-08-01T09:55:39.424Z,991.18
2022-08-01T09:56:39.435Z,991.16
2022-08-01T09:57:39.415Z,991.15
2022-08-01T09:58:39.416Z,991.16
2022-08-01T09:59:57.364Z,991.17
2022-08-01T10:00:45.604Z,991.11
2022-08-01T10:01:40.543Z,991.14
2022-08-01T10:02:39.458Z,991.12
2022-08-01T10:03:39.483Z,991.15
2022-08-01T10:04:39.395Z,991.13
2022-08-01T10:05:39.318Z,991.10
2022-08-01T10:06:39.290Z,991.10
2022-08-01T10:07:43.659Z,991.12
2022-08-01T10:08:40.296Z,991.16
2022-08-01T10:09:40.837Z,991.16
2022-08-01T10:10:39.234Z,991.15
2022-08-01T10:11:39.263Z,991.10
2022-08-01T10:12:39.211Z,991.16
2022-08-01T10:13:40.201Z,991.14
2022-08-01T10:14:39.289Z,991.14
2022-08-01T10:15:39.172Z,991.16
2022-08-01T10:16:39.194Z,991.10
2022-08-01T10:17:50.487Z,991.06
2022-08-01T10:18:40.182Z,991.05
2022-08-01T10:19:39.153Z,991.04
2022-08-01T10:20:39.101Z,990.99
2022-08-01T10:21:56.373Z,990.96
2022-08-01T10:22:40.140Z,991.03
2022-08-01T10:23:40.715Z,991.01
2022-08-01T10:24:39.084Z,991.06
2022-08-01T10:25:42.378Z,991.07
2022-08-01T10:26:39.029Z,991.08
2022-08-01T10:27:39.598Z,991.13
2022-08-01T10:28:39.392Z,991.14
2022-08-01T10:29:46.577Z,991.11
2022-08-01T10:30:39.979Z,991.05
2022-08-01T10:31:38.998Z,991.02
2022-08-01T10:32:39.419Z,991.03
2022-08-01T10:33:51.231Z,991.06
2022-08-01T10:34:40.557Z,991.12
2022-08-01T10:35:47.567Z,991.10
2022-08-01T10:36:40.916Z,991.05
2022-08-01T10:37:52.216Z,991.04
2022-08-01T10:38:39.955Z,991.10
2022-08-01T10:39:38.884Z,991.04
2022-08-01T10:40:38.870Z,991.05
2022-08-01T10:41:41.492Z,991.06
2022-08-01T10:42:38.866Z,991.05
2022-08-01T10:43:38.847Z,991.06
2022-08-01T10:44:38.837Z,991.05
2022-08-01T10:45:38.825Z,991.05
2022-08-01T10:46:38.775Z,991.05
2022-08-01T10:47:49.788Z,990.99
2022-08-01T10:48:39.785Z,991.04
2022-08-01T10:49:38.780Z,990.99
2022-08-01T10:50:38.754Z,990.99
2022-08-01T10:51:52.059Z,991.00
2022-08-01T10:52:39.873Z,990.98
2022-08-01T10:53:42.417Z,990.99
2022-08-01T10:54:38.712Z,990.96
2022-08-01T10:55:39.707Z,990.96
2022-08-01T10:56:38.665Z,990.99
2022-08-01T10:57:38.698Z,990.95
2022-08-01T10:58:42.781Z,990.94
2022-08-01T10:59:49.764Z,990.94
2022-08-01T11:00:39.647Z,990.88
2022-08-01T11:01:38.784Z,990.91
2022-08-01T11:02:39.583Z,990.95
2022-08-01T11:03:56.878Z,990.95
2022-08-01T11:04:39.643Z,990.90
2022-08-01T11:05:38.541Z,990.88
2022-08-01T11:06:38.533Z,990.90
2022-08-01T11:07:38.582Z,990.89
2022-08-01T11:08:38.502Z,990.91
2022-08-01T11:09:38.531Z,990.88
2022-08-01T11:10:38.496Z,990.92
2022-08-01T11:11:38.500Z,990.88
2022-08-01T11:12:38.491Z,990.84
2022-08-01T11:13:38.463Z,990.86
2022-08-01T11:14:55.147Z,990.89
2022-08-01T11:15:49.902Z,990.84
2022-08-01T11:16:39.873Z,990.92
2022-08-01T11:17:42.262Z,990.86
2022-08-01T11:18:38.394Z,990.88
2022-08-01T11:19:38.579Z,990.84
2022-08-01T11:20:42.187Z,990.82
2022-08-01T11:21:58.127Z,990.86
2022-08-01T11:22:39.357Z,990.82
2022-08-01T11:23:38.325Z,990.85
2022-08-01T11:24:38.357Z,990.82
2022-08-01T11:26:06.817Z,990.79
2022-08-01T11:26:39.318Z,990.80
2022-08-01T11:27:38.313Z,990.78
2022-08-01T11:28:40.635Z,990.81
2022-08-01T11:29:39.261Z,990.80
2022-08-01T11:30:38.219Z,990.78
2022-08-01T11:31:38.465Z,990.81
2022-08-01T11:32:58.740Z,990.76
2022-08-01T11:33:39.218Z,990.76
2022-08-01T11:34:38.189Z,990.75
2022-08-01T11:35:38.212Z,990.79
2022-08-01T11:37:39.201Z,990.73
2022-08-01T11:38:38.148Z,990.82
2022-08-01T11:39:38.959Z,990.79
2022-08-01T11:40:38.183Z,990.74
2022-08-01T11:41:39.457Z,990.78
2022-08-01T11:42:38.105Z,990.77
2022-08-01T11:43:38.080Z,990.80
2022-08-01T11:44:38.176Z,990.76
2022-08-01T11:45:38.057Z,990.74
2022-08-01T11:46:38.059Z,990.77
2022-08-01T11:47:38.113Z,990.77
2022-08-01T11:48:38.022Z,990.81
2022-08-01T11:49:38.857Z,990.72
2022-08-01T11:50:38.028Z,990.74
2022-08-01T11:51:37.979Z,990.75
2022-08-01T11:52:38.040Z,990.74
2022-08-01T11:53:37.940Z,990.76
2022-08-01T11:54:37.981Z,990.74
2022-08-01T11:55:38.015Z,990.74
2022-08-01T11:56:42.728Z,990.69
2022-08-01T11:57:39.323Z,990.66
2022-08-01T11:58:37.913Z,990.68
2022-08-01T11:59:41.144Z,990.66
2022-08-01T12:00:37.885Z,990.65
2022-08-01T12:01:38.874Z,990.63
2022-08-01T12:02:37.927Z,990.65
2022-08-01T12:03:37.838Z,990.65
2022-08-01T12:04:37.866Z,990.65
2022-08-01T12:05:37.845Z,990.63
2022-08-01T12:06:38.786Z,990.62
2022-08-01T12:07:37.874Z,990.62
2022-08-01T12:08:37.843Z,990.61
2022-08-01T12:09:37.756Z,990.61
2022-08-01T12:10:49.348Z,990.58
2022-08-01T12:11:38.754Z,990.58
2022-08-01T12:12:37.839Z,990.56
2022-08-01T12:13:37.737Z,990.50
2022-08-01T12:14:37.751Z,990.55
2022-08-01T12:15:37.680Z,990.45
2022-08-01T12:16:37.715Z,990.48
2022-08-01T12:17:37.740Z,990.52
2022-08-01T12:18:37.656Z,990.52
2022-08-01T12:19:37.622Z,990.48
2022-08-01T12:20:38.218Z,990.47
2022-08-01T12:21:37.709Z,990.51
2022-08-01T12:22:37.586Z,990.46
2022-08-01T12:23:37.561Z,990.47
2022-08-01T12:24:37.597Z,990.48
2022-08-01T12:25:37.583Z,990.49
2022-08-01T12:26:37.560Z,990.44
2022-08-01T12:27:37.552Z,990.45
2022-08-01T12:28:37.581Z,990.43
2022-08-01T12:29:37.491Z,990.46
2022-08-01T12:30:37.502Z,990.42
2022-08-01T12:31:37.526Z,990.40
2022-08-01T12:32:37.473Z,990.33